createdAt,value
2024-01-29T00:03:57.911Z,12.1
2024-01-29T00:08:57.849Z,12.2
2024-01-29T00:13:57.830Z,12.1
2024-01-29T00:23:57.800Z,12
2024-01-29T00:53:57.883Z,12.1
2024-01-29T00:58:57.864Z,12.1
2024-01-29T01:08:57.876Z,12.2
2024-01-29T01:13:57.903Z,12.2
2024-01-29T01:23:57.879Z,12.2
2024-01-29T01:33:58.237Z,12.1
2024-01-29T01:43:57.909Z,12.1
2024-01-29T01:48:57.979Z,12.1
2024-01-29T01:53:57.935Z,12.2
2024-01-29T02:08:57.913Z,12.2
2024-01-29T02:13:57.923Z,12.2
2024-01-29T02:18:58.151Z,12.2
2024-01-29T02:28:57.960Z,12.2
2024-01-29T02:33:58.076Z,12.2
2024-01-29T02:43:58.024Z,12.1
2024-01-29T02:53:57.975Z,12.2
2024-01-29T02:58:58.214Z,12.2
2024-01-29T03:08:58.025Z,12.3
2024-01-29T03:13:58.051Z,12.2
2024-01-29T03:28:58.078Z,12.2
2024-01-29T03:38:58.036Z,12.1
2024-01-29T03:43:58.102Z,12.2
2024-01-29T03:53:58.025Z,12.1
2024-01-29T03:58:58.038Z,12.1
2024-01-29T04:03:58.215Z,12.1
2024-01-29T04:08:58.083Z,12.1
2024-01-29T04:13:58.067Z,12.2
2024-01-29T04:18:58.151Z,12
2024-01-29T04:28:58.208Z,12.2
2024-01-29T04:48:58.205Z,12.1
2024-01-29T04:58:58.143Z,12.1
2024-01-29T05:03:58.223Z,12.1
2024-01-29T05:08:58.362Z,12.1
2024-01-29T05:18:58.230Z,12.2
2024-01-29T05:23:58.185Z,12.2
2024-01-29T05:28:58.207Z,12
2024-01-29T05:38:58.197Z,12.1
2024-01-29T05:43:58.200Z,12.1
2024-01-29T06:08:58.198Z,12
2024-01-29T06:18:58.491Z,12.1
2024-01-29T06:28:58.210Z,12
2024-01-29T06:33:58.791Z,12
2024-01-29T06:38:58.233Z,12.1
2024-01-29T06:48:58.263Z,12.1
2024-01-29T06:53:58.238Z,12.2
2024-01-29T07:03:58.364Z,12.1
2024-01-29T07:23:58.297Z,12.1
2024-01-29T07:43:58.303Z,12.2
2024-01-29T07:53:58.280Z,12.2
2024-01-29T07:58:58.274Z,12.2
2024-01-29T08:08:58.420Z,12.1
2024-01-29T08:18:58.525Z,12.2
2024-01-29T08:23:58.321Z,12.2
2024-01-29T08:43:58.347Z,12.2
2024-01-29T08:48:58.399Z,12.2
2024-01-29T08:58:58.534Z,12
2024-01-29T09:08:58.355Z,12.1
2024-01-29T09:18:58.591Z,12.1
2024-01-29T09:28:58.366Z,12.1
2024-01-29T09:33:58.503Z,12.1
2024-01-29T09:43:58.378Z,12.2
2024-01-29T10:03:58.418Z,12.1
2024-01-29T10:13:58.387Z,12.1
2024-01-29T10:18:58.539Z,12.2
2024-01-29T10:23:58.410Z,12.1
2024-01-29T10:33:58.570Z,12.1
2024-01-29T10:43:58.383Z,12.1
2024-01-29T10:48:58.479Z,12.1
2024-01-29T10:58:59.433Z,12.1
2024-01-29T11:23:58.401Z,12.2
2024-01-29T11:28:58.497Z,12.4
2024-01-29T11:38:58.538Z,12.4
2024-01-29T11:48:58.785Z,12.5
2024-01-29T11:58:58.719Z,12.6
2024-01-29T12:03:58.473Z,12.5
2024-01-29T12:08:58.436Z,12.6
2024-01-29T12:13:58.447Z,12.5
2024-01-29T12:23:58.525Z,12.7
2024-01-29T12:38:59.019Z,12.7
2024-01-29T12:43:58.449Z,12.7
2024-01-29T12:55:12.703Z,12.7
2024-01-29T12:58:58.624Z,12.8
2024-01-29T13:08:58.486Z,12.8
2024-01-29T13:13:58.520Z,12.8
2024-01-29T13:18:58.859Z,12.7
2024-01-29T13:23:58.520Z,12.8
2024-01-29T13:28:58.536Z,12.9
2024-01-29T13:33:58.627Z,12.8
2024-01-29T13:38:58.531Z,12.9
2024-01-29T13:43:58.553Z,12.9
2024-01-29T13:48:58.570Z,12.9
2024-01-29T14:08:58.551Z,12.8
2024-01-29T14:13:58.558Z,12.8
2024-01-29T14:18:58.946Z,12.7
2024-01-29T14:28:58.577Z,12.7
2024-01-29T14:33:58.661Z,12.8
2024-01-29T14:43:58.577Z,12.8
2024-01-29T14:48:58.634Z,12.8
2024-01-29T14:53:58.640Z,12.8
2024-01-29T14:58:58.625Z,12.7
2024-01-29T15:03:58.871Z,12.7
2024-01-29T15:28:58.827Z,12.8
2024-01-29T15:38:58.686Z,12.7
2024-01-29T15:48:58.871Z,12.7
2024-01-29T15:58:58.806Z,12.6
2024-01-29T16:03:58.714Z,12.6
2024-01-29T16:13:58.706Z,12.6
2024-01-29T16:18:58.807Z,12.6
2024-01-29T16:28:58.703Z,12.7
2024-01-29T16:53:58.740Z,12.8
2024-01-29T17:13:58.794Z,12.7
2024-01-29T17:23:58.807Z,12.8
2024-01-29T17:28:58.820Z,12.7
2024-01-29T17:33:58.918Z,12.7
2024-01-29T17:43:58.777Z,12.7
2024-01-29T17:48:59.147Z,12.8
2024-01-29T18:03:58.847Z,12.6
2024-01-29T18:13:58.829Z,12.6
2024-01-29T18:18:58.996Z,12.7
2024-01-29T18:28:58.829Z,12.6
2024-01-29T18:33:59.100Z,12.6
2024-01-29T18:43:58.877Z,12.7
2024-01-29T18:53:58.888Z,12.5
2024-01-29T18:58:58.907Z,12.6
2024-01-29T19:03:59.041Z,12.6
2024-01-29T19:23:58.882Z,12.6
2024-01-29T19:28:58.894Z,12.6
2024-01-29T19:33:59.042Z,12.6
2024-01-29T19:43:58.914Z,12.6
2024-01-29T19:48:58.970Z,12.6
2024-01-29T19:58:58.960Z,12.6
2024-01-29T20:03:59.061Z,12.6
2024-01-29T20:08:58.975Z,12.5
2024-01-29T20:23:58.999Z,12.6
2024-01-29T20:43:58.995Z,12.5
2024-01-29T20:48:59.177Z,12.6
2024-01-29T20:58:59.104Z,12.5
2024-01-29T21:08:59.052Z,12.5
2024-01-29T21:13:59.067Z,12.5
2024-01-29T21:18:59.210Z,12.5
2024-01-29T21:28:59.100Z,12.4
2024-01-29T21:38:59.073Z,12.5
2024-01-29T22:03:59.112Z,12.4
2024-01-29T22:13:59.016Z,12.4
2024-01-29T22:23:59.061Z,12.4
2024-01-29T22:33:59.100Z,12.4
2024-01-29T22:38:59.077Z,12.4
2024-01-29T22:48:59.262Z,12.4
2024-01-29T22:58:59.124Z,12.4
2024-01-29T23:03:59.227Z,12.4
2024-01-29T23:23:59.117Z,12.4
2024-01-29T23:28:59.117Z,12.4
2024-01-29T23:33:59.193Z,12.4
2024-01-29T23:38:59.167Z,12.4
2024-01-29T23:48:59.254Z,12.3
2024-01-29T23:58:59.149Z,12.4
